Time,TemperatureF,DewpointF,PressureIn,WindDirection,WindDirectionDegrees,WindSpeedMPH,WindSpeedGustMPH,Humidity,HourlyPrecipIn,Conditions,Clouds,dailyrainin,SoftwareType,DateUTC
2013-02-10 00:02:00,10.0,7.7,31.24,NNE,14,0.0,0.0,90,0.00,CLR,CLR,0.00,WeatherDisplay:10.37,2013-02-10 05:02:00,
2013-02-10 00:07:00,10.0,7.7,31.24,NNE,14,0.0,0.0,90,0.00,CLR,CLR,0.00,WeatherDisplay:10.37,2013-02-10 05:07:00,
2013-02-10 00:12:00,10.0,7.6,31.24,NNE,14,0.0,0.0,90,0.00,CLR,CLR,0.00,WeatherDisplay:10.37,2013-02-10 05:12:00,
2013-02-10 00:17:00,9.9,7.5,31.24,NNE,14,0.0,0.0,90,0.00,CLR,CLR,0.00,WeatherDisplay:10.37,2013-02-10 05:17:00,
2013-02-10 00:22:00,10.4,8.3,31.24,NNE,14,0.0,0.0,91,0.00,CLR,CLR,0.00,WeatherDisplay:10.37,2013-02-10 05:22:00,
2013-02-10 00:27:00,11.0,9.1,31.24,NNE,14,0.0,0.0,92,0.00,CLR,CLR,0.00,WeatherDisplay:10.37,2013-02-10 05:27:00,
2013-02-10 00:32:00,11.1,9.3,31.24,NNE,14,0.0,0.0,92,0.00,CLR,CLR,0.00,WeatherDisplay:10.37,2013-02-10 05:32:00,
2013-02-10 00:37:00,11.0,8.9,31.24,NNE,14,0.0,0.0,91,0.00,CLR,CLR,0.00,WeatherDisplay:10.37,2013-02-10 05:37:00,
2013-02-10 00:42:00,10.7,8.3,31.24,NNE,14,0.0,0.0,90,0.00,CLR,CLR,0.00,WeatherDisplay:10.37,2013-02-10 05:42:00,
2013-02-10 00:47:00,10.5,8.1,31.24,NNE,14,0.0,0.0,90,0.00,CLR,CLR,0.00,WeatherDisplay:10.37,2013-02-10 05:47:00,
2013-02-10 00:52:00,10.1,7.7,31.24,NNE,14,0.0,0.0,90,0.00,CLR,CLR,0.00,WeatherDisplay:10.37,2013-02-10 05:52:00,
2013-02-10 00:57:00,9.8,7.5,31.24,NNE,14,0.0,0.0,90,0.00,CLR,CLR,0.00,WeatherDisplay:10.37,2013-02-10 05:57:00,
2013-02-10 01:02:00,9.8,7.5,31.24,NNE,14,0.0,0.0,90,0.00,CLR,CLR,0.00,WeatherDisplay:10.37,2013-02-10 06:02:00,
2013-02-10 01:07:00,9.7,7.4,31.24,NNE,14,0.0,0.0,90,0.00,CLR,CLR,0.00,WeatherDisplay:10.37,2013-02-10 06:07:00,
2013-02-10 01:12:00,9.6,7.3,31.24,NNE,14,0.0,0.0,90,0.00,CLR,CLR,0.00,WeatherDisplay:10.37,2013-02-10 06:12:00,
2013-02-10 01:17:00,9.5,7.1,31.24,NNE,14,0.0,0.0,90,0.00,CLR,CLR,0.00,WeatherDisplay:10.37,2013-02-10 06:17:00,
2013-02-10 01:22:00,9.1,6.5,31.24,NNE,14,0.0,0.0,89,0.00,CLR,CLR,0.00,WeatherDisplay:10.37,2013-02-10 06:22:00,
2013-02-10 01:27:00,8.8,6.5,31.24,NNE,14,0.0,0.0,90,0.00,CLR,CLR,0.00,WeatherDisplay:10.37,2013-02-10 06:27:00,
2013-02-10 01:32:00,8.6,6.0,31.24,NNE,14,0.0,0.0,89,0.00,CLR,CLR,0.00,WeatherDisplay:10.37,2013-02-10 06:32:00,
2013-02-10 01:37:00,8.6,6.3,31.24,NNE,14,0.0,0.0,90,0.00,CLR,CLR,0.00,WeatherDisplay:10.37,2013-02-10 06:37:00,
2013-02-10 01:42:00,8.8,6.5,31.23,NNE,14,0.0,0.0,90,0.00,CLR,CLR,0.00,WeatherDisplay:10.37,2013-02-10 06:42:00,
2013-02-10 01:47:00,8.7,6.4,31.23,NNE,14,0.0,0.0,90,0.00,CLR,CLR,0.00,WeatherDisplay:10.37,2013-02-10 06:47:00,
2013-02-10 01:52:00,8.5,6.2,31.23,NNE,14,0.0,0.0,90,0.00,CLR,CLR,0.00,WeatherDisplay:10.37,2013-02-10 06:52:00,
2013-02-10 01:57:00,8.4,6.1,31.23,NNE,14,0.0,0.0,90,0.00,CLR,CLR,0.00,WeatherDisplay:10.37,2013-02-10 06:57:00,
2013-02-10 02:02:00,8.3,6.0,31.23,NNE,14,0.0,0.0,90,0.00,CLR,CLR,0.00,WeatherDisplay:10.37,2013-02-10 07:02:00,
2013-02-10 02:07:00,8.3,6.0,31.23,NNE,14,0.0,0.0,90,0.00,CLR,CLR,0.00,WeatherDisplay:10.37,2013-02-10 07:07:00,
2013-02-10 02:17:00,8.2,5.9,31.22,NNE,14,0.0,0.0,90,0.00,CLR,CLR,0.00,WeatherDisplay:10.37,2013-02-10 07:17:00,
2013-02-10 02:22:00,8.1,5.8,31.22,NNE,14,0.0,0.0,90,0.00,CLR,CLR,0.00,WeatherDisplay:10.37,2013-02-10 07:22:00,
2013-02-10 02:27:00,7.7,5.2,31.23,NNE,14,1.0,3.0,89,0.00,CLR,CLR,0.00,WeatherDisplay:10.37,2013-02-10 07:27:00,
2013-02-10 02:32:00,7.6,5.0,31.23,NNE,14,0.0,0.0,89,0.00,CLR,CLR,0.00,WeatherDisplay:10.37,2013-02-10 07:32:00,
2013-02-10 02:37:00,7.6,5.3,31.23,NNE,14,0.0,0.0,90,0.00,CLR,CLR,0.00,WeatherDisplay:10.37,2013-02-10 07:37:00,
2013-02-10 02:42:00,7.7,5.4,31.22,NNE,14,0.0,0.0,90,0.00,CLR,CLR,0.00,WeatherDisplay:10.37,2013-02-10 07:42:00,
2013-02-10 02:47:00,7.9,5.6,31.22,NNE,14,0.0,0.0,90,0.00,CLR,CLR,0.00,WeatherDisplay:10.37,2013-02-10 07:47:00,
2013-02-10 02:52:00,8.1,6.0,31.23,NNE,14,0.0,2.0,91,0.00,CLR,CLR,0.00,WeatherDisplay:10.37,2013-02-10 07:52:00,
2013-02-10 02:57:00,7.8,5.5,31.22,NNE,14,0.0,2.0,90,0.00,CLR,CLR,0.00,WeatherDisplay:10.37,2013-02-10 07:57:00,
2013-02-10 03:02:00,7.8,5.4,31.22,NNE,14,0.0,0.0,90,0.00,CLR,CLR,0.00,WeatherDisplay:10.37,2013-02-10 08:02:00,
2013-02-10 03:07:00,7.8,5.5,31.22,NNE,14,0.0,0.0,90,0.00,CLR,CLR,0.00,WeatherDisplay:10.37,2013-02-10 08:07:00,
2013-02-10 03:12:00,8.0,5.7,31.22,NNE,14,0.0,0.0,90,0.00,CLR,CLR,0.00,WeatherDisplay:10.37,2013-02-10 08:12:00,
2013-02-10 03:17:00,8.5,6.4,31.22,NNE,14,0.0,0.0,91,0.00,CLR,CLR,0.00,WeatherDisplay:10.37,2013-02-10 08:17:00,
2013-02-10 03:22:00,9.1,7.0,31.21,NNE,14,0.0,0.0,91,0.00,CLR,CLR,0.00,WeatherDisplay:10.37,2013-02-10 08:22:00,
2013-02-10 03:27:00,9.5,7.6,31.21,NNE,14,0.0,0.0,92,0.00,CLR,CLR,0.00,WeatherDisplay:10.37,2013-02-10 08:27:00,
2013-02-10 03:32:00,9.8,7.7,31.20,NNE,14,0.0,0.0,91,0.00,CLR,CLR,0.00,WeatherDisplay:10.37,2013-02-10 08:32:00,
2013-02-10 03:37:00,9.8,7.7,31.20,NNE,14,0.0,0.0,91,0.00,CLR,CLR,0.00,WeatherDisplay:10.37,2013-02-10 08:37:00,
2013-02-10 03:42:00,9.2,6.8,31.20,NNE,14,0.0,0.0,90,0.00,CLR,CLR,0.00,WeatherDisplay:10.37,2013-02-10 08:42:00,
2013-02-10 03:47:00,8.3,5.7,31.20,NNE,14,0.0,0.0,89,0.00,CLR,CLR,0.00,WeatherDisplay:10.37,2013-02-10 08:47:00,
2013-02-10 03:52:00,7.8,5.2,31.20,NNE,14,0.0,0.0,89,0.00,CLR,CLR,0.00,WeatherDisplay:10.37,2013-02-10 08:52:00,
2013-02-10 03:57:00,7.7,5.1,31.20,NNE,14,0.0,0.0,89,0.00,CLR,CLR,0.00,WeatherDisplay:10.37,2013-02-10 08:57:00,
2013-02-10 04:02:00,7.6,5.0,31.20,NNE,14,0.0,0.0,89,0.00,CLR,CLR,0.00,WeatherDisplay:10.37,2013-02-10 09:02:00,
2013-02-10 04:07:00,7.7,5.4,31.20,NNE,14,0.0,0.0,90,0.00,CLR,CLR,0.00,WeatherDisplay:10.37,2013-02-10 09:07:00,
2013-02-10 04:12:00,7.7,5.4,31.20,NNE,14,0.0,0.0,90,0.00,CLR,CLR,0.00,WeatherDisplay:10.37,2013-02-10 09:12:00,
2013-02-10 04:17:00,8.1,6.0,31.20,NNE,14,0.0,0.0,91,0.00,CLR,CLR,0.00,WeatherDisplay:10.37,2013-02-10 09:17:00,
2013-02-10 04:22:00,8.4,6.3,31.20,NNE,14,0.0,0.0,91,0.00,CLR,CLR,0.00,WeatherDisplay:10.37,2013-02-10 09:22:00,
2013-02-10 04:27:00,8.5,6.5,31.20,NNE,14,0.0,0.0,91,0.00,CLR,CLR,0.00,WeatherDisplay:10.37,2013-02-10 09:27:00,
2013-02-10 04:32:00,8.3,6.0,31.20,NNE,14,0.0,0.0,90,0.00,CLR,CLR,0.00,WeatherDisplay:10.37,2013-02-10 09:32:00,
2013-02-10 04:37:00,8.0,5.4,31.20,NNE,14,0.0,0.0,89,0.00,CLR,CLR,0.00,WeatherDisplay:10.37,2013-02-10 09:37:00,
2013-02-10 04:42:00,7.7,5.2,31.20,NNE,14,0.0,0.0,89,0.00,CLR,CLR,0.00,WeatherDisplay:10.37,2013-02-10 09:42:00,
2013-02-10 04:47:00,7.6,5.0,31.19,NNE,14,0.0,0.0,89,0.00,CLR,CLR,0.00,WeatherDisplay:10.37,2013-02-10 09:47:00,
2013-02-10 04:52:00,7.4,4.8,31.19,NNE,14,0.0,0.0,89,0.00,CLR,CLR,0.00,WeatherDisplay:10.37,2013-02-10 09:52:00,
2013-02-10 04:57:00,7.3,4.8,31.20,NNE,14,0.0,0.0,89,0.00,CLR,CLR,0.00,WeatherDisplay:10.37,2013-02-10 09:57:00,
2013-02-10 05:02:00,7.1,4.5,31.20,NNE,14,0.0,0.0,89,0.00,CLR,CLR,0.00,WeatherDisplay:10.37,2013-02-10 10:02:00,
2013-02-10 05:07:00,6.9,4.4,31.20,NNE,14,0.0,0.0,89,0.00,CLR,CLR,0.00,WeatherDisplay:10.37,2013-02-10 10:07:00,
2013-02-10 05:12:00,6.9,4.4,31.20,NNE,14,0.0,0.0,89,0.00,CLR,CLR,0.00,WeatherDisplay:10.37,2013-02-10 10:12:00,
2013-02-10 05:17:00,7.1,4.5,31.20,NNE,14,0.0,0.0,89,0.00,CLR,CLR,0.00,WeatherDisplay:10.37,2013-02-10 10:17:00,
2013-02-10 05:22:00,7.2,4.9,31.20,NNE,14,0.0,0.0,90,0.00,CLR,CLR,0.00,WeatherDisplay:10.37,2013-02-10 10:22:00,
2013-02-10 05:27:00,7.3,5.0,31.20,NNE,14,0.0,0.0,90,0.00,CLR,CLR,0.00,WeatherDisplay:10.37,2013-02-10 10:27:00,
2013-02-10 05:32:00,7.3,5.0,31.20,NNE,14,0.0,0.0,90,0.00,CLR,CLR,0.00,WeatherDisplay:10.37,2013-02-10 10:32:00,
2013-02-10 05:37:00,7.4,5.1,31.20,NNE,14,0.0,0.0,90,0.00,CLR,CLR,0.00,WeatherDisplay:10.37,2013-02-10 10:37:00,
2013-02-10 05:42:00,7.3,5.0,31.20,NNE,14,0.0,0.0,90,0.00,CLR,CLR,0.00,WeatherDisplay:10.37,2013-02-10 10:42:00,
2013-02-10 05:47:00,7.3,5.0,31.20,NNE,14,0.0,0.0,90,0.00,CLR,CLR,0.00,WeatherDisplay:10.37,2013-02-10 10:47:00,
2013-02-10 05:52:00,7.4,5.1,31.20,NNE,14,0.0,0.0,90,0.00,CLR,CLR,0.00,WeatherDisplay:10.37,2013-02-10 10:52:00,
2013-02-10 05:57:00,7.5,5.2,31.20,NNE,14,0.0,0.0,90,0.00,CLR,CLR,0.00,WeatherDisplay:10.37,2013-02-10 10:57:00,
2013-02-10 06:02:00,7.6,5.3,31.20,NNE,14,0.0,0.0,90,0.00,CLR,CLR,0.00,WeatherDisplay:10.37,2013-02-10 11:02:00,
2013-02-10 06:07:00,7.6,5.3,31.20,NNE,14,0.0,0.0,90,0.00,CLR,CLR,0.00,WeatherDisplay:10.37,2013-02-10 11:07:00,
2013-02-10 06:12:00,7.7,5.3,31.20,NNE,14,0.0,0.0,90,0.00,CLR,CLR,0.00,WeatherDisplay:10.37,2013-02-10 11:12:00,
2013-02-10 06:17:00,7.6,5.3,31.21,NNE,14,0.0,0.0,90,0.00,CLR,CLR,0.00,WeatherDisplay:10.37,2013-02-10 11:17:00,
2013-02-10 06:22:00,7.5,5.2,31.21,NNE,14,0.0,0.0,90,0.00,CLR,CLR,0.00,WeatherDisplay:10.37,2013-02-10 11:22:00,
2013-02-10 06:27:00,7.5,4.9,31.21,NNE,14,0.0,0.0,89,0.00,CLR,CLR,0.00,WeatherDisplay:10.37,2013-02-10 11:27:00,
2013-02-10 06:32:00,7.5,5.2,31.21,NNE,14,0.0,0.0,90,0.00,CLR,CLR,0.00,WeatherDisplay:10.37,2013-02-10 11:32:00,
2013-02-10 06:37:00,7.6,5.2,31.21,NNE,14,0.0,0.0,90,0.00,CLR,CLR,0.00,WeatherDisplay:10.37,2013-02-10 11:37:00,
2013-02-10 06:42:00,7.6,5.3,31.21,NNE,14,0.0,0.0,90,0.00,CLR,CLR,0.00,WeatherDisplay:10.37,2013-02-10 11:42:00,
2013-02-10 06:47:00,7.7,5.4,31.21,NNE,14,0.0,0.0,90,0.00,CLR,CLR,0.00,WeatherDisplay:10.37,2013-02-10 11:47:00,
2013-02-10 06:52:00,7.7,5.4,31.21,NNE,14,0.0,0.0,90,0.00,CLR,CLR,0.00,WeatherDisplay:10.37,2013-02-10 11:52:00,
2013-02-10 06:57:00,7.9,5.6,31.21,NNE,14,0.0,0.0,90,0.00,CLR,CLR,0.00,WeatherDisplay:10.37,2013-02-10 11:57:00,
2013-02-10 07:02:00,8.0,5.7,31.21,NNE,14,0.0,0.0,90,0.00,CLR,CLR,0.00,WeatherDisplay:10.37,2013-02-10 12:02:00,
2013-02-10 07:07:00,8.3,5.9,31.21,NNE,14,0.0,0.0,90,0.00,CLR,CLR,0.00,WeatherDisplay:10.37,2013-02-10 12:07:00,
2013-02-10 07:12:00,8.5,6.2,31.21,NNE,14,0.0,0.0,90,0.00,CLR,CLR,0.00,WeatherDisplay:10.37,2013-02-10 12:12:00,
2013-02-10 07:17:00,8.6,6.5,31.21,NNE,14,0.0,0.0,91,0.00,CLR,CLR,0.00,WeatherDisplay:10.37,2013-02-10 12:17:00,
2013-02-10 07:22:00,8.7,6.6,31.21,NNE,14,0.0,0.0,91,0.00,CLR,CLR,0.00,WeatherDisplay:10.37,2013-02-10 12:22:00,
2013-02-10 07:27:00,8.7,6.4,31.21,NNE,14,0.0,0.0,90,0.00,CLR,CLR,0.00,WeatherDisplay:10.37,2013-02-10 12:27:00,
2013-02-10 07:32:00,8.9,6.6,31.20,NNE,14,0.0,0.0,90,0.00,CLR,CLR,0.00,WeatherDisplay:10.37,2013-02-10 12:32:00,
2013-02-10 07:37:00,9.0,6.7,31.20,NNE,14,0.0,0.0,90,0.00,CLR,CLR,0.00,WeatherDisplay:10.37,2013-02-10 12:37:00,
2013-02-10 07:42:00,9.1,6.7,31.20,NNE,14,0.0,0.0,90,0.00,CLR,CLR,0.00,WeatherDisplay:10.37,2013-02-10 12:42:00,
2013-02-10 07:52:00,9.5,7.4,31.20,NNE,14,0.0,0.0,91,0.00,CLR,CLR,0.00,WeatherDisplay:10.37,2013-02-10 12:52:00,
2013-02-10 07:57:00,9.9,7.8,31.20,NNE,14,0.0,0.0,91,0.00,CLR,CLR,0.00,WeatherDisplay:10.37,2013-02-10 12:57:00,
2013-02-10 08:02:00,11.6,9.2,31.20,North,10,0.0,0.0,90,0.00,CLR,CLR,0.00,WeatherDisplay:10.37,2013-02-10 13:02:00,
2013-02-10 08:07:00,11.7,9.3,31.20,North,4,0.0,0.0,90,0.00,CLR,CLR,0.00,WeatherDisplay:10.37,2013-02-10 13:07:00,
2013-02-10 08:12:00,11.9,9.5,31.20,North,1,0.0,0.0,90,0.00,CLR,CLR,0.00,WeatherDisplay:10.37,2013-02-10 13:12:00,
2013-02-10 08:17:00,12.1,9.7,31.20,North,0,0.0,0.0,90,0.00,CLR,CLR,0.00,WeatherDisplay:10.37,2013-02-10 13:17:00,
2013-02-10 08:22:00,12.3,9.9,31.19,North,0,0.0,0.0,90,0.00,CLR,CLR,0.00,WeatherDisplay:10.37,2013-02-10 13:22:00,
2013-02-10 08:27:00,12.6,10.2,31.19,North,0,0.0,0.0,90,0.00,CLR,CLR,0.00,WeatherDisplay:10.37,2013-02-10 13:27:00,
2013-02-10 08:32:00,13.0,10.6,31.19,North,2,0.0,0.0,90,0.00,CLR,CLR,0.00,WeatherDisplay:10.37,2013-02-10 13:32:00,
2013-02-10 08:37:00,12.8,10.9,31.19,North,5,0.0,0.0,92,0.00,CLR,CLR,0.00,WeatherDisplay:10.37,2013-02-10 13:37:00,
2013-02-10 08:42:00,13.1,11.2,31.18,North,11,0.0,0.0,92,0.00,CLR,CLR,0.00,WeatherDisplay:10.37,2013-02-10 13:42:00,
2013-02-10 08:52:00,13.7,11.8,31.18,NNE,14,0.0,0.0,92,0.00,CLR,CLR,0.00,WeatherDisplay:10.37,2013-02-10 13:52:00,
2013-02-10 08:57:00,14.0,12.1,31.18,NNE,14,0.0,0.0,92,0.00,CLR,CLR,0.00,WeatherDisplay:10.37,2013-02-10 13:57:00,
2013-02-10 09:02:00,14.3,12.4,31.17,NNE,14,0.0,0.0,92,0.00,CLR,CLR,0.00,WeatherDisplay:10.37,2013-02-10 14:02:00,
2013-02-10 09:07:00,14.9,13.0,31.18,NNE,14,0.0,1.0,92,0.00,CLR,CLR,0.00,WeatherDisplay:10.37,2013-02-10 14:07:00,
2013-02-10 09:12:00,15.8,13.8,31.17,NNE,14,0.0,0.0,92,0.00,CLR,CLR,0.00,WeatherDisplay:10.37,2013-02-10 14:12:00,
2013-02-10 09:17:00,17.0,15.3,31.17,NNE,14,0.0,0.0,93,0.00,CLR,CLR,0.00,WeatherDisplay:10.37,2013-02-10 14:17:00,
2013-02-10 09:22:00,18.0,16.3,31.16,NNE,14,0.0,0.0,93,0.00,CLR,CLR,0.00,WeatherDisplay:10.37,2013-02-10 14:22:00,
2013-02-10 09:27:00,18.8,17.1,31.16,NNE,14,0.0,0.0,93,0.00,CLR,CLR,0.00,WeatherDisplay:10.37,2013-02-10 14:27:00,
2013-02-10 09:32:00,19.7,18.2,31.16,NNE,14,0.0,0.0,94,0.00,CLR,CLR,0.00,WeatherDisplay:10.37,2013-02-10 14:32:00,
2013-02-10 09:37:00,20.5,18.8,31.15,NNE,14,0.0,0.0,93,0.00,CLR,CLR,0.00,WeatherDisplay:10.37,2013-02-10 14:37:00,
2013-02-10 09:42:00,21.1,19.4,31.15,NNE,14,0.0,2.0,93,0.00,CLR,CLR,0.00,WeatherDisplay:10.37,2013-02-10 14:42:00,
2013-02-10 09:47:00,21.9,20.2,31.15,NNW,347,2.0,3.0,93,0.00,CLR,CLR,0.00,WeatherDisplay:10.37,2013-02-10 14:47:00,
2013-02-10 09:52:00,22.6,20.6,31.14,SW,214,0.0,3.0,92,0.00,CLR,CLR,0.00,WeatherDisplay:10.37,2013-02-10 14:52:00,
2013-02-10 09:57:00,23.3,20.8,31.14,SSW,198,3.0,5.0,90,0.00,CLR,CLR,0.00,WeatherDisplay:10.37,2013-02-10 14:57:00,
2013-02-10 10:02:00,24.2,21.1,31.14,SSW,195,3.0,4.0,88,0.00,CLR,CLR,0.00,WeatherDisplay:10.37,2013-02-10 15:02:00,
2013-02-10 10:07:00,25.0,21.6,31.12,SSW,194,0.0,4.0,87,0.00,CLR,CLR,0.00,WeatherDisplay:10.37,2013-02-10 15:07:00,
2013-02-10 10:12:00,25.4,21.2,31.13,SSW,197,3.0,5.0,84,0.00,CLR,CLR,0.00,WeatherDisplay:10.37,2013-02-10 15:12:00,
2013-02-10 10:17:00,25.9,21.7,31.12,SSW,199,3.0,5.0,84,0.00,CLR,CLR,0.00,WeatherDisplay:10.37,2013-02-10 15:17:00,
2013-02-10 10:22:00,26.3,21.9,31.11,SSW,199,2.0,4.0,83,0.00,CLR,CLR,0.00,WeatherDisplay:10.37,2013-02-10 15:22:00,
2013-02-10 10:27:00,26.8,21.8,31.10,SSW,199,0.0,4.0,81,0.00,CLR,CLR,0.00,WeatherDisplay:10.37,2013-02-10 15:27:00,
2013-02-10 10:32:00,27.4,22.3,31.10,SSW,200,2.0,3.0,81,0.00,CLR,CLR,0.00,WeatherDisplay:10.37,2013-02-10 15:32:00,
2013-02-10 10:37:00,27.9,22.6,31.09,SSW,197,1.0,3.0,80,0.00,CLR,CLR,0.00,WeatherDisplay:10.37,2013-02-10 15:37:00,
2013-02-10 10:42:00,28.7,22.7,31.09,South,186,5.0,6.0,78,0.00,CLR,CLR,0.00,WeatherDisplay:10.37,2013-02-10 15:42:00,
2013-02-10 10:47:00,29.8,22.5,31.10,SSW,192,5.0,8.0,74,0.00,CLR,CLR,0.00,WeatherDisplay:10.37,2013-02-10 15:47:00,
2013-02-10 10:52:00,30.1,23.4,31.12,SSW,212,6.0,8.0,76,0.00,CLR,CLR,0.00,WeatherDisplay:10.37,2013-02-10 15:52:00,
2013-02-10 10:57:00,30.2,22.9,31.12,SW,224,7.0,10.0,74,0.00,CLR,CLR,0.00,WeatherDisplay:10.37,2013-02-10 15:57:00,
2013-02-10 11:02:00,30.4,23.1,31.12,SW,217,7.0,12.0,74,0.00,CLR,CLR,0.00,WeatherDisplay:10.37,2013-02-10 16:02:00,
2013-02-10 11:07:00,30.8,22.8,31.12,SSW,197,7.0,12.0,72,0.00,CLR,CLR,0.00,WeatherDisplay:10.37,2013-02-10 16:07:00,
2013-02-10 11:12:00,31.1,22.8,31.12,SSW,192,8.0,10.0,71,0.00,CLR,CLR,0.00,WeatherDisplay:10.37,2013-02-10 16:12:00,
2013-02-10 11:17:00,31.2,22.9,31.12,SSW,196,7.0,9.0,71,0.00,CLR,CLR,0.00,WeatherDisplay:10.37,2013-02-10 16:17:00,
2013-02-10 11:22:00,31.6,23.3,31.12,SSW,196,6.0,9.0,71,0.00,CLR,CLR,0.00,WeatherDisplay:10.37,2013-02-10 16:22:00,
2013-02-10 11:27:00,32.1,23.8,31.11,SSW,198,5.0,8.0,71,0.00,CLR,CLR,0.00,WeatherDisplay:10.37,2013-02-10 16:27:00,
2013-02-10 11:32:00,32.7,24.0,31.11,SSW,198,5.0,7.0,70,0.00,CLR,CLR,0.00,WeatherDisplay:10.37,2013-02-10 16:32:00,
2013-02-10 11:42:00,33.8,23.6,31.12,SSW,194,7.0,10.0,66,0.00,CLR,CLR,0.00,WeatherDisplay:10.37,2013-02-10 16:42:00,
2013-02-10 11:47:00,34.3,24.1,31.11,SSW,196,3.0,6.0,66,0.00,CLR,CLR,0.00,WeatherDisplay:10.37,2013-02-10 16:47:00,
2013-02-10 11:52:00,34.8,24.3,31.11,SSW,200,3.0,5.0,65,0.00,CLR,CLR,0.00,WeatherDisplay:10.37,2013-02-10 16:52:00,
2013-02-10 11:57:00,35.5,24.2,31.10,South,170,2.0,7.0,63,0.00,CLR,CLR,0.00,WeatherDisplay:10.37,2013-02-10 16:57:00,
2013-02-10 12:02:00,36.2,23.7,31.10,SSE,166,6.0,8.0,60,0.00,CLR,CLR,0.00,WeatherDisplay:10.37,2013-02-10 17:02:00,
2013-02-10 12:07:00,37.3,24.7,31.09,South,172,5.0,9.0,60,0.00,CLR,CLR,0.00,WeatherDisplay:10.37,2013-02-10 17:07:00,
2013-02-10 12:12:00,38.1,23.7,31.08,SSE,167,6.0,10.0,56,0.00,CLR,CLR,0.00,WeatherDisplay:10.37,2013-02-10 17:12:00,
2013-02-10 12:17:00,38.5,22.8,31.08,SSE,155,5.0,7.0,53,0.00,CLR,CLR,0.00,WeatherDisplay:10.37,2013-02-10 17:17:00,
2013-02-10 12:22:00,38.9,23.7,31.08,SSE,162,3.0,9.0,54,0.00,CLR,CLR,0.00,WeatherDisplay:10.37,2013-02-10 17:22:00,
2013-02-10 12:27:00,39.3,23.1,31.07,South,174,8.0,12.0,52,0.00,CLR,CLR,0.00,WeatherDisplay:10.37,2013-02-10 17:27:00,
2013-02-10 12:32:00,39.9,22.7,31.07,SSE,162,1.0,12.0,50,0.00,CLR,CLR,0.00,WeatherDisplay:10.37,2013-02-10 17:32:00,
2013-02-10 12:37:00,40.9,23.2,31.07,SSE,154,3.0,7.0,49,0.00,CLR,CLR,0.00,WeatherDisplay:10.37,2013-02-10 17:37:00,
2013-02-10 12:42:00,41.6,22.8,31.06,SSE,158,6.0,10.0,47,0.00,CLR,CLR,0.00,WeatherDisplay:10.37,2013-02-10 17:42:00,
2013-02-10 12:47:00,42.1,22.3,31.06,SSE,161,5.0,9.0,45,0.00,CLR,CLR,0.00,WeatherDisplay:10.37,2013-02-10 17:47:00,
2013-02-10 12:52:00,42.4,21.4,31.05,SSE,166,2.0,9.0,43,0.00,CLR,CLR,0.00,WeatherDisplay:10.37,2013-02-10 17:52:00,
2013-02-10 12:57:00,42.5,21.5,31.05,SSE,157,5.0,8.0,43,0.00,CLR,CLR,0.00,WeatherDisplay:10.37,2013-02-10 17:57:00,
2013-02-10 13:02:00,42.6,22.2,31.05,SE,144,5.0,9.0,44,0.00,CLR,CLR,0.00,WeatherDisplay:10.37,2013-02-10 18:02:00,
2013-02-10 13:07:00,42.7,21.7,31.04,SSE,148,5.0,7.0,43,0.00,CLR,CLR,0.00,WeatherDisplay:10.37,2013-02-10 18:07:00,
2013-02-10 13:12:00,42.8,21.2,31.03,SE,134,7.0,13.0,42,0.00,CLR,CLR,0.00,WeatherDisplay:10.37,2013-02-10 18:12:00,
2013-02-10 13:17:00,43.0,20.9,31.03,SE,146,7.0,12.0,41,0.00,CLR,CLR,0.00,WeatherDisplay:10.37,2013-02-10 18:17:00,
2013-02-10 13:27:00,43.4,22.4,31.01,SSE,153,6.0,12.0,43,0.00,CLR,CLR,0.00,WeatherDisplay:10.37,2013-02-10 18:27:00,
2013-02-10 13:32:00,43.8,22.2,31.00,SE,144,2.0,13.0,42,0.00,CLR,CLR,0.00,WeatherDisplay:10.37,2013-02-10 18:32:00,
2013-02-10 13:42:00,44.7,22.4,30.99,SE,131,5.0,9.0,41,0.00,CLR,CLR,0.00,WeatherDisplay:10.37,2013-02-10 18:42:00,
2013-02-10 13:47:00,45.1,22.2,30.99,SE,135,3.0,6.0,40,0.00,CLR,CLR,0.00,WeatherDisplay:10.37,2013-02-10 18:47:00,
2013-02-10 13:57:00,45.8,22.2,31.00,SSE,156,2.0,7.0,39,0.00,CLR,CLR,0.00,WeatherDisplay:10.37,2013-02-10 18:57:00,
2013-02-10 14:02:00,45.8,22.8,31.00,SSE,153,8.0,13.0,40,0.00,CLR,CLR,0.00,WeatherDisplay:10.37,2013-02-10 19:02:00,
2013-02-10 14:07:00,45.3,22.9,30.99,South,169,8.0,13.0,41,0.00,CLR,CLR,0.00,WeatherDisplay:10.37,2013-02-10 19:07:00,
2013-02-10 14:12:00,45.1,22.8,30.99,SSE,168,3.0,9.0,41,0.00,CLR,CLR,0.00,WeatherDisplay:10.37,2013-02-10 19:12:00,
2013-02-10 14:22:00,45.6,21.4,30.98,SE,145,6.0,9.0,38,0.00,CLR,CLR,0.00,WeatherDisplay:10.37,2013-02-10 19:22:00,
2013-02-10 14:27:00,45.7,22.1,30.98,SE,140,2.0,8.0,39,0.00,CLR,CLR,0.00,WeatherDisplay:10.37,2013-02-10 19:27:00,
2013-02-10 14:32:00,45.6,22.7,30.98,SSE,150,2.0,5.0,40,0.00,CLR,CLR,0.00,WeatherDisplay:10.37,2013-02-10 19:32:00,
2013-02-10 14:37:00,45.7,22.1,30.98,SE,140,2.0,6.0,39,0.00,CLR,CLR,0.00,WeatherDisplay:10.37,2013-02-10 19:37:00,
2013-02-10 14:42:00,45.7,21.5,30.98,SE,132,5.0,7.0,38,0.00,CLR,CLR,0.00,WeatherDisplay:10.37,2013-02-10 19:42:00,
2013-02-10 14:47:00,45.7,22.1,30.98,SSE,149,1.0,8.0,39,0.00,CLR,CLR,0.00,WeatherDisplay:10.37,2013-02-10 19:47:00,
2013-02-10 14:52:00,45.6,22.7,30.98,SSE,159,2.0,6.0,40,0.00,CLR,CLR,0.00,WeatherDisplay:10.37,2013-02-10 19:52:00,
2013-02-10 14:57:00,45.4,24.7,30.98,SSE,161,1.0,5.0,44,0.00,CLR,CLR,0.00,WeatherDisplay:10.37,2013-02-10 19:57:00,
2013-02-10 15:02:00,45.2,23.4,30.99,SE,146,1.0,7.0,42,0.00,CLR,CLR,0.00,WeatherDisplay:10.37,2013-02-10 20:02:00,
2013-02-10 15:07:00,45.2,22.9,30.99,SE,128,2.0,4.0,41,0.00,CLR,CLR,0.00,WeatherDisplay:10.37,2013-02-10 20:07:00,
2013-02-10 15:12:00,45.3,23.5,30.98,SE,128,0.0,5.0,42,0.00,CLR,CLR,0.00,WeatherDisplay:10.37,2013-02-10 20:12:00,
2013-02-10 15:17:00,45.2,24.6,30.98,SSE,151,0.0,5.0,44,0.00,CLR,CLR,0.00,WeatherDisplay:10.37,2013-02-10 20:17:00,
2013-02-10 15:22:00,45.2,24.0,30.98,SSE,164,0.0,7.0,43,0.00,CLR,CLR,0.00,WeatherDisplay:10.37,2013-02-10 20:22:00,
2013-02-10 15:27:00,45.3,25.2,30.97,SSE,155,0.0,2.0,45,0.00,CLR,CLR,0.00,WeatherDisplay:10.37,2013-02-10 20:27:00,
2013-02-10 15:32:00,45.3,25.2,30.97,SE,136,0.0,1.0,45,0.00,CLR,CLR,0.00,WeatherDisplay:10.37,2013-02-10 20:32:00,
2013-02-10 15:37:00,45.2,24.6,30.96,ESE,112,0.0,6.0,44,0.00,CLR,CLR,0.00,WeatherDisplay:10.37,2013-02-10 20:37:00,
2013-02-10 15:42:00,45.2,24.6,30.97,East,96,0.0,0.0,44,0.00,CLR,CLR,0.00,WeatherDisplay:10.37,2013-02-10 20:42:00,
2013-02-10 15:47:00,45.3,24.1,30.96,ESE,115,1.0,4.0,43,0.00,CLR,CLR,0.00,WeatherDisplay:10.37,2013-02-10 20:47:00,
2013-02-10 15:52:00,45.3,24.6,30.96,ESE,118,0.0,5.0,44,0.00,CLR,CLR,0.00,WeatherDisplay:10.37,2013-02-10 20:52:00,
2013-02-10 16:02:00,45.1,25.5,30.95,ESE,120,0.0,6.0,46,0.00,CLR,CLR,0.00,WeatherDisplay:10.37,2013-02-10 21:02:00,
2013-02-10 16:12:00,44.6,25.0,30.94,ESE,111,0.0,4.0,46,0.00,CLR,CLR,0.00,WeatherDisplay:10.37,2013-02-10 21:12:00,
2013-02-10 16:22:00,44.3,24.8,30.95,South,171,5.0,8.0,46,0.00,CLR,CLR,0.00,WeatherDisplay:10.37,2013-02-10 21:22:00,
2013-02-10 16:27:00,43.9,26.0,30.95,South,174,5.0,8.0,49,0.00,CLR,CLR,0.00,WeatherDisplay:10.37,2013-02-10 21:27:00,
2013-02-10 16:32:00,44.0,26.0,30.95,SSE,166,3.0,10.0,49,0.00,CLR,CLR,0.00,WeatherDisplay:10.37,2013-02-10 21:32:00,
2013-02-10 16:37:00,43.9,25.5,30.94,SSE,159,1.0,5.0,48,0.00,CLR,CLR,0.00,WeatherDisplay:10.37,2013-02-10 21:37:00,
2013-02-10 16:42:00,44.0,25.5,30.94,SE,146,1.0,6.0,48,0.00,CLR,CLR,0.00,WeatherDisplay:10.37,2013-02-10 21:42:00,
2013-02-10 16:47:00,43.9,25.5,30.95,SE,143,0.0,5.0,48,0.00,CLR,CLR,0.00,WeatherDisplay:10.37,2013-02-10 21:47:00,
2013-02-10 16:52:00,43.6,26.6,30.94,SSE,149,2.0,5.0,51,0.00,CLR,CLR,0.00,WeatherDisplay:10.37,2013-02-10 21:52:00,
2013-02-10 16:57:00,43.1,27.1,30.94,SSE,153,0.0,0.0,53,0.00,CLR,CLR,0.00,WeatherDisplay:10.37,2013-02-10 21:57:00,
2013-02-10 17:02:00,42.7,26.7,30.94,SSE,156,0.0,0.0,53,0.00,CLR,CLR,0.00,WeatherDisplay:10.37,2013-02-10 22:02:00,
2013-02-10 17:07:00,42.5,26.1,30.94,SSE,156,1.0,4.0,52,0.00,CLR,CLR,0.00,WeatherDisplay:10.37,2013-02-10 22:07:00,
2013-02-10 17:12:00,42.5,27.0,30.94,SSE,156,0.0,1.0,54,0.00,CLR,CLR,0.00,WeatherDisplay:10.37,2013-02-10 22:12:00,
2013-02-10 17:17:00,42.4,26.0,30.94,SSE,156,0.0,2.0,52,0.00,CLR,CLR,0.00,WeatherDisplay:10.37,2013-02-10 22:17:00,
2013-02-10 17:22:00,42.3,26.8,30.93,SSE,156,0.0,0.0,54,0.00,CLR,CLR,0.00,WeatherDisplay:10.37,2013-02-10 22:22:00,
2013-02-10 17:27:00,42.1,27.5,30.93,SSE,156,0.0,0.0,56,0.00,CLR,CLR,0.00,WeatherDisplay:10.37,2013-02-10 22:27:00,
2013-02-10 17:32:00,41.8,27.7,30.93,SSE,156,0.0,0.0,57,0.00,CLR,CLR,0.00,WeatherDisplay:10.37,2013-02-10 22:32:00,
2013-02-10 17:37:00,41.4,28.1,30.92,SSE,156,0.0,0.0,59,0.00,CLR,CLR,0.00,WeatherDisplay:10.37,2013-02-10 22:37:00,
2013-02-10 17:42:00,41.1,27.8,30.92,SSE,156,0.0,0.0,59,0.00,CLR,CLR,0.00,WeatherDisplay:10.37,2013-02-10 22:42:00,
2013-02-10 17:47:00,40.7,28.7,30.92,SSE,156,0.0,0.0,62,0.00,CLR,CLR,0.00,WeatherDisplay:10.37,2013-02-10 22:47:00,
2013-02-10 17:52:00,40.3,28.7,30.92,SSE,156,0.0,0.0,63,0.00,CLR,CLR,0.00,WeatherDisplay:10.37,2013-02-10 22:52:00,
2013-02-10 17:57:00,39.9,28.7,30.91,SSE,156,0.0,0.0,64,0.00,CLR,CLR,0.00,WeatherDisplay:10.37,2013-02-10 22:57:00,
2013-02-10 18:02:00,39.5,29.0,30.91,SSE,156,0.0,0.0,66,0.00,CLR,CLR,0.00,WeatherDisplay:10.37,2013-02-10 23:02:00,
2013-02-10 18:07:00,39.1,28.7,30.91,SSE,156,0.0,1.0,66,0.00,CLR,CLR,0.00,WeatherDisplay:10.37,2013-02-10 23:07:00,
2013-02-10 18:12:00,38.8,28.8,30.91,SSE,156,0.0,0.0,67,0.00,CLR,CLR,0.00,WeatherDisplay:10.37,2013-02-10 23:12:00,
2013-02-10 18:17:00,38.6,28.9,30.91,SSE,156,0.0,0.0,68,0.00,CLR,CLR,0.00,WeatherDisplay:10.37,2013-02-10 23:17:00,
2013-02-10 18:22:00,38.5,28.8,30.91,SSE,156,0.0,0.0,68,0.00,CLR,CLR,0.00,WeatherDisplay:10.37,2013-02-10 23:22:00,
2013-02-10 18:27:00,38.3,29.7,30.92,SSE,156,0.0,1.0,71,0.00,CLR,CLR,0.00,WeatherDisplay:10.37,2013-02-10 23:27:00,
2013-02-10 18:32:00,38.1,28.8,30.91,SSE,156,1.0,2.0,69,0.00,CLR,CLR,0.00,WeatherDisplay:10.37,2013-02-10 23:32:00,
2013-02-10 18:37:00,38.0,28.7,30.91,SSE,156,0.0,4.0,69,0.00,CLR,CLR,0.00,WeatherDisplay:10.37,2013-02-10 23:37:00,
2013-02-10 18:42:00,38.0,28.4,30.91,SSE,157,0.0,0.0,68,0.00,CLR,CLR,0.00,WeatherDisplay:10.37,2013-02-10 23:42:00,
2013-02-10 18:47:00,38.0,28.7,30.91,SSE,156,0.0,4.0,69,0.00,CLR,CLR,0.00,WeatherDisplay:10.37,2013-02-10 23:47:00,
2013-02-10 18:52:00,38.1,28.1,30.91,SSE,157,0.0,5.0,67,0.00,CLR,CLR,0.00,WeatherDisplay:10.37,2013-02-10 23:52:00,
2013-02-10 18:57:00,38.4,28.4,30.91,SSE,157,0.0,4.0,67,0.00,CLR,CLR,0.00,WeatherDisplay:10.37,2013-02-10 23:57:00,
2013-02-10 19:02:00,38.5,28.1,30.91,SSE,157,0.0,0.0,66,0.00,CLR,CLR,0.00,WeatherDisplay:10.37,2013-02-11 00:02:00,
2013-02-10 19:07:00,38.6,27.8,30.90,SSE,157,0.0,0.0,65,0.00,CLR,CLR,0.00,WeatherDisplay:10.37,2013-02-11 00:07:00,
2013-02-10 19:12:00,38.6,27.8,30.90,SSE,157,0.0,0.0,65,0.00,CLR,CLR,0.00,WeatherDisplay:10.37,2013-02-11 00:12:00,
2013-02-10 19:17:00,38.7,26.4,30.89,SSE,157,1.0,4.0,61,0.00,CLR,CLR,0.00,WeatherDisplay:10.37,2013-02-11 00:17:00,
2013-02-10 19:22:00,39.4,26.7,30.88,SSE,156,0.0,1.0,60,0.00,CLR,CLR,0.00,WeatherDisplay:10.37,2013-02-11 00:22:00,
2013-02-10 19:27:00,39.6,27.2,30.88,SSE,156,0.0,0.0,61,0.00,CLR,CLR,0.00,WeatherDisplay:10.37,2013-02-11 00:27:00,
2013-02-10 19:32:00,39.6,27.6,30.88,SSE,154,0.0,4.0,62,0.00,CLR,CLR,0.00,WeatherDisplay:10.37,2013-02-11 00:32:00,
2013-02-10 19:37:00,39.7,27.3,30.88,SSE,150,0.0,2.0,61,0.00,CLR,CLR,0.00,WeatherDisplay:10.37,2013-02-11 00:37:00,
2013-02-10 19:42:00,39.8,25.8,30.88,SSE,160,2.0,5.0,57,0.00,CLR,CLR,0.00,WeatherDisplay:10.37,2013-02-11 00:42:00,
2013-02-10 19:47:00,40.7,25.7,30.87,SSE,157,1.0,6.0,55,0.00,CLR,CLR,0.00,WeatherDisplay:10.37,2013-02-11 00:47:00,
2013-02-10 19:52:00,41.1,25.7,30.87,SSE,155,0.0,6.0,54,0.00,CLR,CLR,0.00,WeatherDisplay:10.37,2013-02-11 00:52:00,
2013-02-10 19:57:00,41.6,25.2,30.87,SSE,158,5.0,8.0,52,0.00,CLR,CLR,0.00,WeatherDisplay:10.37,2013-02-11 00:57:00,
2013-02-10 20:02:00,42.1,24.8,30.87,SSE,154,3.0,8.0,50,0.00,CLR,CLR,0.00,WeatherDisplay:10.37,2013-02-11 01:02:00,
2013-02-10 20:07:00,42.6,25.3,30.87,SSE,157,0.0,8.0,50,0.00,CLR,CLR,0.00,WeatherDisplay:10.37,2013-02-11 01:07:00,
2013-02-10 20:12:00,43.1,24.7,30.87,SSE,151,5.0,10.0,48,0.00,CLR,CLR,0.00,WeatherDisplay:10.37,2013-02-11 01:12:00,
2013-02-10 20:17:00,43.6,25.1,30.86,SE,138,1.0,6.0,48,0.00,CLR,CLR,0.00,WeatherDisplay:10.37,2013-02-11 01:17:00,
2013-02-10 20:22:00,43.7,25.3,30.85,SE,127,2.0,8.0,48,0.00,CLR,CLR,0.00,WeatherDisplay:10.37,2013-02-11 01:22:00,
2013-02-10 20:27:00,43.8,24.9,30.85,SE,143,3.0,8.0,47,0.00,CLR,CLR,0.00,WeatherDisplay:10.37,2013-02-11 01:27:00,
2013-02-10 20:32:00,44.0,24.5,30.85,SSE,153,3.0,12.0,46,0.00,CLR,CLR,0.00,WeatherDisplay:10.37,2013-02-11 01:32:00,
2013-02-10 20:37:00,44.1,24.6,30.85,SSE,147,7.0,10.0,46,0.00,CLR,CLR,0.00,WeatherDisplay:10.37,2013-02-11 01:37:00,
2013-02-10 20:42:00,44.1,24.7,30.84,SE,146,7.0,10.0,46,0.00,CLR,CLR,0.00,WeatherDisplay:10.37,2013-02-11 01:42:00,
2013-02-10 20:47:00,44.2,24.7,30.85,SE,144,2.0,7.0,46,0.00,CLR,CLR,0.00,WeatherDisplay:10.37,2013-02-11 01:47:00,
2013-02-10 20:52:00,44.0,25.6,30.85,SE,137,1.0,5.0,48,0.00,CLR,CLR,0.00,WeatherDisplay:10.37,2013-02-11 01:52:00,
2013-02-10 20:57:00,44.0,25.0,30.84,SE,132,5.0,8.0,47,0.00,CLR,CLR,0.00,WeatherDisplay:10.37,2013-02-11 01:57:00,
2013-02-10 21:02:00,43.9,26.0,30.83,SE,129,2.0,7.0,49,0.00,CLR,CLR,0.00,WeatherDisplay:10.37,2013-02-11 02:02:00,
2013-02-10 21:07:00,43.8,25.4,30.83,SE,141,0.0,5.0,48,0.00,CLR,CLR,0.00,WeatherDisplay:10.37,2013-02-11 02:07:00,
2013-02-10 21:12:00,43.6,25.7,30.84,SSE,153,1.0,5.0,49,0.00,CLR,CLR,0.00,WeatherDisplay:10.37,2013-02-11 02:12:00,
2013-02-10 21:17:00,43.6,25.7,30.84,SSE,159,2.0,6.0,49,0.00,CLR,CLR,0.00,WeatherDisplay:10.37,2013-02-11 02:17:00,
2013-02-10 21:22:00,43.5,25.1,30.83,SSE,151,2.0,6.0,48,0.00,CLR,CLR,0.00,WeatherDisplay:10.37,2013-02-11 02:22:00,
2013-02-10 21:27:00,43.4,25.5,30.83,ESE,117,2.0,12.0,49,0.00,CLR,CLR,0.00,WeatherDisplay:10.37,2013-02-11 02:27:00,
2013-02-10 21:32:00,43.4,25.5,30.83,SE,131,6.0,8.0,49,0.00,CLR,CLR,0.00,WeatherDisplay:10.37,2013-02-11 02:32:00,
2013-02-10 21:37:00,43.4,26.0,30.83,SE,142,5.0,9.0,50,0.00,CLR,CLR,0.00,WeatherDisplay:10.37,2013-02-11 02:37:00,
2013-02-10 21:42:00,43.4,25.5,30.83,SE,143,5.0,9.0,49,0.00,CLR,CLR,0.00,WeatherDisplay:10.37,2013-02-11 02:42:00,
2013-02-10 21:47:00,43.5,25.6,30.82,SSE,157,6.0,10.0,49,0.00,CLR,CLR,0.00,WeatherDisplay:10.37,2013-02-11 02:47:00,
2013-02-10 21:57:00,43.3,25.9,30.82,SE,146,6.0,9.0,50,0.00,CLR,CLR,0.00,WeatherDisplay:10.37,2013-02-11 02:57:00,
2013-02-10 22:02:00,43.3,25.9,30.81,SSE,149,3.0,9.0,50,0.00,CLR,CLR,0.00,WeatherDisplay:10.37,2013-02-11 03:02:00,
2013-02-10 22:07:00,43.2,25.8,30.81,SSE,155,6.0,12.0,50,0.00,CLR,CLR,0.00,WeatherDisplay:10.37,2013-02-11 03:07:00,
2013-02-10 22:12:00,43.1,26.2,30.81,SSE,162,7.0,10.0,51,0.00,CLR,CLR,0.00,WeatherDisplay:10.37,2013-02-11 03:12:00,
2013-02-10 22:17:00,43.1,26.2,30.80,SSE,155,6.0,12.0,51,0.00,CLR,CLR,0.00,WeatherDisplay:10.37,2013-02-11 03:17:00,
2013-02-10 22:22:00,43.1,26.2,30.80,SSE,148,2.0,7.0,51,0.00,CLR,CLR,0.00,WeatherDisplay:10.37,2013-02-11 03:22:00,
2013-02-10 22:27:00,43.1,26.2,30.80,SE,139,6.0,9.0,51,0.00,CLR,CLR,0.00,WeatherDisplay:10.37,2013-02-11 03:27:00,
2013-02-10 22:32:00,43.1,26.2,30.79,SE,129,5.0,7.0,51,0.00,CLR,CLR,0.00,WeatherDisplay:10.37,2013-02-11 03:32:00,
2013-02-10 22:37:00,43.1,26.2,30.79,SE,136,2.0,8.0,51,0.00,CLR,CLR,0.00,WeatherDisplay:10.37,2013-02-11 03:37:00,
2013-02-10 22:42:00,43.0,26.6,30.79,SSE,161,5.0,10.0,52,0.00,CLR,CLR,0.00,WeatherDisplay:10.37,2013-02-11 03:42:00,
2013-02-10 22:47:00,42.9,26.9,30.79,SSE,164,6.0,9.0,53,0.00,CLR,CLR,0.00,WeatherDisplay:10.37,2013-02-11 03:47:00,
2013-02-10 22:52:00,42.9,26.5,30.78,SSE,150,3.0,9.0,52,0.00,CLR,CLR,0.00,WeatherDisplay:10.37,2013-02-11 03:52:00,
2013-02-10 22:57:00,42.9,26.9,30.78,SE,144,6.0,9.0,53,0.00,CLR,CLR,0.00,WeatherDisplay:10.37,2013-02-11 03:57:00,
2013-02-10 23:02:00,43.0,27.0,30.78,SE,142,0.0,9.0,53,0.00,CLR,CLR,0.00,WeatherDisplay:10.37,2013-02-11 04:02:00,
2013-02-10 23:07:00,43.1,26.7,30.77,SE,140,5.0,14.0,52,0.00,CLR,CLR,0.00,WeatherDisplay:10.37,2013-02-11 04:07:00,
2013-02-10 23:12:00,43.5,27.0,30.77,SSE,150,7.0,14.0,52,0.00,CLR,CLR,0.00,WeatherDisplay:10.37,2013-02-11 04:12:00,
2013-02-10 23:22:00,43.6,27.1,30.76,SSE,150,3.0,12.0,52,0.00,CLR,CLR,0.00,WeatherDisplay:10.37,2013-02-11 04:22:00,
2013-02-10 23:27:00,43.6,27.1,30.76,SSE,151,5.0,12.0,52,0.00,CLR,CLR,0.00,WeatherDisplay:10.37,2013-02-11 04:27:00,
2013-02-10 23:32:00,43.5,27.0,30.76,SSE,158,7.0,12.0,52,0.00,CLR,CLR,0.00,WeatherDisplay:10.37,2013-02-11 04:32:00,
2013-02-10 23:37:00,43.6,26.6,30.76,SSE,165,9.0,13.0,51,0.00,CLR,CLR,0.00,WeatherDisplay:10.37,2013-02-11 04:37:00,
2013-02-10 23:42:00,43.9,27.4,30.76,SSE,155,8.0,14.0,52,0.00,CLR,CLR,0.00,WeatherDisplay:10.37,2013-02-11 04:42:00,
2013-02-10 23:47:00,43.4,27.4,30.76,SSE,163,9.0,19.0,53,0.00,CLR,CLR,0.00,WeatherDisplay:10.37,2013-02-11 04:47:00,
2013-02-10 23:52:00,43.8,29.5,30.76,South,172,15.0,21.0,57,0.00,CLR,CLR,0.00,WeatherDisplay:10.37,2013-02-11 04:52:00,
2013-02-10 23:57:00,43.8,30.8,30.76,South,176,13.0,25.0,60,0.00,CLR,CLR,0.00,WeatherDisplay:10.37,2013-02-11 04:57:00,